Time;durP1;ratioP1;P1;durP2;ratioP2;P2;SDS_P1;SDS_P2;PMS_P1;PMS_P2;Temp;Humidity;BMP_temperature;BMP_pressure;BME280_temperature;BME280_humidity;BME280_pressure;Samples;Min_cycle;Max_cycle;Signal;HPM_P1;HPM_P2
2022/07/09 00:01:01;;;;;;;;;;;25.70;35.70;;;;;;1585306;74;816;-68
2022/07/09 00:03:03;;;;;;;;;;;25.70;35.80;;;;;;1580574;75;741;-69
2022/07/09 00:05:05;;;;;;;;;;;25.70;35.80;;;;;;1580492;73;1930;-66
2022/07/09 00:07:07;;;;;;;;;;;25.70;35.80;;;;;;1583600;74;791;-68
2022/07/09 00:09:09;;;;;;;;;;;25.70;35.90;;;;;;1583251;74;1128;-67
2022/07/09 00:11:11;;;;;;;;;;;25.70;35.90;;;;;;1580871;74;700;-65
2022/07/09 00:13:12;;;;;;;;;;;25.70;35.90;;;;;;1586571;74;695;-67
2022/07/09 00:15:14;;;;;;;;;;;25.70;35.90;;;;;;1583523;74;726;-68
2022/07/09 00:17:16;;;;;;;;;;;25.60;36.00;;;;;;1577669;73;1172;-68
2022/07/09 00:19:18;;;;;;;;;;;25.70;36.00;;;;;;1581182;73;813;-70
2022/07/09 00:21:20;;;;;;;;;;;25.70;36.00;;;;;;1583029;73;714;-68
2022/07/09 00:23:22;;;;;;;;;;;25.70;35.90;;;;;;1585408;74;709;-68
2022/07/09 00:25:24;;;;;;;;;;;25.70;36.00;;;;;;1585993;73;1949;-65
2022/07/09 00:27:25;;;;;;;;;;;25.60;36.00;;;;;;1586057;74;1195;-67
2022/07/09 00:29:27;;;;;;;;;;;25.70;36.00;;;;;;1586913;74;773;-67
2022/07/09 00:31:29;;;;;;;;;;;25.70;36.00;;;;;;1593472;74;768;-68
2022/07/09 00:33:31;;;;;;;;;;;25.60;36.10;;;;;;1589324;74;789;-69
2022/07/09 00:35:33;;;;;;;;;;;25.70;36.10;;;;;;1580713;73;724;-66
2022/07/09 00:37:35;;;;;;;;;;;25.60;36.10;;;;;;1580785;74;1180;-67
2022/07/09 00:39:37;;;;;;;;;;;25.60;36.10;;;;;;1579430;74;772;-66
2022/07/09 00:41:39;;;;;;;;;;;25.70;36.10;;;;;;1582844;74;776;-66
2022/07/09 00:43:42;;;;;;;;;;;25.60;36.10;;;;;;1580253;74;729;-67
2022/07/09 00:45:45;;;;;;;;;;;25.70;36.10;;;;;;1571121;74;1921;-68
2022/07/09 00:47:47;;;;;;;;;;;25.60;36.20;;;;;;1575439;73;1475;-66
2022/07/09 00:49:49;;;;;;;;;;;25.60;36.20;;;;;;1581661;74;691;-67
2022/07/09 00:51:51;;;;;;;;;;;25.70;36.20;;;;;;1579937;73;711;-68
2022/07/09 00:53:52;;;;;;;;;;;25.60;36.20;;;;;;1583839;74;790;-66
2022/07/09 00:55:54;;;;;;;;;;;25.60;36.30;;;;;;1582327;74;747;-65
2022/07/09 00:57:56;;;;;;;;;;;25.60;36.30;;;;;;1593206;71;229285;-57
2022/07/09 00:59:58;;;;;;;;;;;25.60;36.30;;;;;;1610449;71;646;-57
2022/07/09 01:02:00;;;;;;;;;;;25.60;36.30;;;;;;1628745;71;769;-58
2022/07/09 01:04:02;;;;;;;;;;;25.60;36.30;;;;;;1629212;71;910;-59
2022/07/09 01:06:04;;;;;;;;;;;25.60;36.40;;;;;;1618253;71;1925;-58
2022/07/09 01:08:06;;;;;;;;;;;25.60;36.30;;;;;;1629181;71;1138;-58
2022/07/09 01:10:08;;;;;;;;;;;25.60;36.30;;;;;;1627636;71;800;-58
2022/07/09 01:12:10;;;;;;;;;;;25.60;36.30;;;;;;1630461;71;780;-58
2022/07/09 01:14:12;;;;;;;;;;;25.50;36.30;;;;;;1626060;71;688;-58
2022/07/09 01:16:14;;;;;;;;;;;25.50;36.30;;;;;;1627701;71;789;-58
2022/07/09 01:18:16;;;;;;;;;;;25.50;36.30;;;;;;1626340;71;750;-57
2022/07/09 01:20:20;;;;;;;;;;;25.60;36.30;;;;;;1625870;71;775;-57
2022/07/09 01:22:22;;;;;;;;;;;25.50;36.30;;;;;;1624952;71;1110;-58
2022/07/09 01:24:24;;;;;;;;;;;25.60;36.30;;;;;;1630443;71;733;-57
2022/07/09 01:26:26;;;;;;;;;;;25.60;36.30;;;;;;1628911;71;1951;-57
2022/07/09 01:28:28;;;;;;;;;;;25.60;36.30;;;;;;1628902;71;729;-57
2022/07/09 01:30:30;;;;;;;;;;;25.60;36.40;;;;;;1624726;71;787;-57
2022/07/09 01:32:32;;;;;;;;;;;25.60;36.40;;;;;;1629036;71;779;-58
2022/07/09 01:34:33;;;;;;;;;;;25.40;36.40;;;;;;1627491;71;734;-58
2022/07/09 01:36:35;;;;;;;;;;;25.60;36.40;;;;;;1626854;71;1137;-58
2022/07/09 01:38:37;;;;;;;;;;;25.50;36.40;;;;;;1628645;71;699;-58
2022/07/09 01:40:39;;;;;;;;;;;25.60;36.40;;;;;;1628197;71;724;-59
2022/07/09 01:42:41;;;;;;;;;;;25.50;36.40;;;;;;1614923;71;768;-58
2022/07/09 01:44:43;;;;;;;;;;;25.50;36.30;;;;;;1610128;71;1933;-59
2022/07/09 01:46:45;;;;;;;;;;;25.50;36.40;;;;;;1630283;71;1132;-57
2022/07/09 01:48:47;;;;;;;;;;;25.60;36.40;;;;;;1628208;73;726;-57
2022/07/09 01:50:48;;;;;;;;;;;25.50;36.30;;;;;;1627106;73;787;-58
2022/07/09 01:52:50;;;;;;;;;;;25.50;36.40;;;;;;1630263;72;746;-58
2022/07/09 01:54:52;;;;;;;;;;;25.50;36.40;;;;;;1617321;71;727;-58
2022/07/09 01:56:54;;;;;;;;;;;25.50;36.40;;;;;;1630982;71;1112;-58
2022/07/09 01:58:56;;;;;;;;;;;25.50;36.40;;;;;;1630242;71;777;-58
2022/07/09 02:00:58;;;;;;;;;;;25.50;36.50;;;;;;1625698;71;741;-58
2022/07/09 02:03:00;;;;;;;;;;;25.50;36.40;;;;;;1627229;71;709;-58
2022/07/09 02:05:02;;;;;;;;;;;25.50;36.40;;;;;;1624623;71;1918;-57
2022/07/09 02:07:04;;;;;;;;;;;25.50;36.40;;;;;;1621697;73;1156;-57
2022/07/09 02:09:06;;;;;;;;;;;25.50;36.50;;;;;;1628472;71;776;-58
2022/07/09 02:11:07;;;;;;;;;;;25.50;36.40;;;;;;1630098;71;659;-58
2022/07/09 02:13:09;;;;;;;;;;;25.50;36.50;;;;;;1627337;71;719;-58
2022/07/09 02:15:12;;;;;;;;;;;25.50;36.50;;;;;;1623560;71;913;-58
2022/07/09 02:17:14;;;;;;;;;;;25.50;36.50;;;;;;1628906;71;1074;-58
2022/07/09 02:19:16;;;;;;;;;;;25.50;36.40;;;;;;1625952;71;809;-58
2022/07/09 02:21:18;;;;;;;;;;;25.50;36.40;;;;;;1624833;71;719;-57
2022/07/09 02:23:20;;;;;;;;;;;25.50;36.30;;;;;;1627724;71;744;-58
2022/07/09 02:25:22;;;;;;;;;;;25.50;36.40;;;;;;1627552;71;1929;-58
2022/07/09 02:27:24;;;;;;;;;;;25.50;36.30;;;;;;1630475;71;1181;-58
2022/07/09 02:29:25;;;;;;;;;;;25.50;36.40;;;;;;1630976;71;776;-57
2022/07/09 02:31:27;;;;;;;;;;;25.50;36.30;;;;;;1620682;71;825;-57
2022/07/09 02:33:31;;;;;;;;;;;25.60;36.30;;;;;;1628511;73;686;-58
2022/07/09 02:35:33;;;;;;;;;;;25.50;36.40;;;;;;1627487;71;746;-58
2022/07/09 02:37:35;;;;;;;;;;;25.50;36.40;;;;;;1627174;71;1128;-57
2022/07/09 02:39:37;;;;;;;;;;;25.50;36.30;;;;;;1618071;71;778;-58
2022/07/09 02:41:38;;;;;;;;;;;25.50;36.40;;;;;;1630244;71;1632;-57
2022/07/09 02:43:45;;;;;;;;;;;25.50;36.40;;;;;;1627334;73;705;-57
2022/07/09 02:45:44;;;;;;;;;;;25.50;36.40;;;;;;1617728;71;1917;-57
2022/07/09 02:47:46;;;;;;;;;;;25.50;36.50;;;;;;1620534;71;1125;-57
2022/07/09 02:49:47;;;;;;;;;;;25.50;36.50;;;;;;1630905;71;856;-57
2022/07/09 02:51:49;;;;;;;;;;;25.50;36.50;;;;;;1620938;71;744;-57
2022/07/09 02:53:51;;;;;;;;;;;25.50;36.40;;;;;;1621436;71;1496;-57
2022/07/09 02:55:53;;;;;;;;;;;25.50;36.40;;;;;;1627783;71;933;-57
2022/07/09 02:57:55;;;;;;;;;;;25.50;36.50;;;;;;1620724;71;1113;-57
2022/07/09 02:59:57;;;;;;;;;;;25.50;36.50;;;;;;1627447;73;764;-57
2022/07/09 03:01:59;;;;;;;;;;;25.50;36.40;;;;;;1621017;71;719;-57
2022/07/09 03:04:01;;;;;;;;;;;25.50;36.40;;;;;;1629673;71;747;-58
2022/07/09 03:06:03;;;;;;;;;;;25.50;36.50;;;;;;1623575;71;1921;-58
2022/07/09 03:08:05;;;;;;;;;;;25.50;36.50;;;;;;1628798;71;1526;-58
2022/07/09 03:10:07;;;;;;;;;;;25.50;36.50;;;;;;1629937;71;716;-58
2022/07/09 03:12:09;;;;;;;;;;;25.50;36.40;;;;;;1629158;71;745;-58
2022/07/09 03:14:11;;;;;;;;;;;25.50;36.50;;;;;;1621290;71;728;-57
2022/07/09 03:16:13;;;;;;;;;;;25.50;36.50;;;;;;1630511;71;775;-57
2022/07/09 03:18:15;;;;;;;;;;;25.50;36.50;;;;;;1622052;71;1132;-57
2022/07/09 03:20:17;;;;;;;;;;;25.50;36.50;;;;;;1622533;71;796;-58
2022/07/09 03:22:18;;;;;;;;;;;25.50;36.50;;;;;;1629307;71;1541;-58
2022/07/09 03:24:20;;;;;;;;;;;25.50;36.50;;;;;;1631902;71;740;-57
2022/07/09 03:26:22;;;;;;;;;;;25.50;36.60;;;;;;1630512;71;1940;-56
2022/07/09 03:28:24;;;;;;;;;;;25.50;36.60;;;;;;1626767;71;765;-57
2022/07/09 03:30:26;;;;;;;;;;;25.50;36.60;;;;;;1631087;71;791;-58
2022/07/09 03:32:28;;;;;;;;;;;25.50;36.60;;;;;;1629024;71;739;-58
2022/07/09 03:34:30;;;;;;;;;;;25.50;36.60;;;;;;1619218;71;738;-58
2022/07/09 03:36:32;;;;;;;;;;;25.50;36.60;;;;;;1628411;71;1393;-58
2022/07/09 03:38:34;;;;;;;;;;;25.50;36.60;;;;;;1628351;71;711;-58
2022/07/09 03:40:36;;;;;;;;;;;25.50;36.60;;;;;;1633065;71;822;-58
2022/07/09 03:42:38;;;;;;;;;;;25.50;36.60;;;;;;1631276;71;740;-58
2022/07/09 03:44:40;;;;;;;;;;;25.50;36.50;;;;;;1619919;71;737;-58
2022/07/09 03:46:42;;;;;;;;;;;25.50;36.50;;;;;;1615069;71;1929;-59
2022/07/09 03:48:44;;;;;;;;;;;25.50;36.50;;;;;;1631276;71;772;-58
2022/07/09 03:50:47;;;;;;;;;;;25.50;36.60;;;;;;1630029;71;1518;-58
2022/07/09 03:52:48;;;;;;;;;;;25.50;36.60;;;;;;1622465;71;788;-58
2022/07/09 03:54:50;;;;;;;;;;;25.50;36.60;;;;;;1619361;71;773;-56
2022/07/09 03:56:52;;;;;;;;;;;25.50;36.50;;;;;;1633354;71;1138;-57
2022/07/09 03:58:54;;;;;;;;;;;25.50;36.50;;;;;;1631529;71;655;-56
2022/07/09 04:00:56;;;;;;;;;;;25.50;36.50;;;;;;1631094;71;744;-57
2022/07/09 04:02:58;;;;;;;;;;;25.50;36.50;;;;;;1627609;71;678;-58
2022/07/09 04:05:00;;;;;;;;;;;25.50;36.50;;;;;;1620520;71;1525;-58
2022/07/09 04:07:02;;;;;;;;;;;25.50;36.50;;;;;;1629154;71;1935;-58
2022/07/09 04:09:06;;;;;;;;;;;25.50;36.60;;;;;;1628052;71;708;-58
2022/07/09 04:11:08;;;;;;;;;;;25.50;36.50;;;;;;1612740;71;716;-58
2022/07/09 04:13:10;;;;;;;;;;;25.50;36.60;;;;;;1619901;71;712;-57
2022/07/09 04:15:12;;;;;;;;;;;25.50;36.60;;;;;;1629508;71;765;-58
2022/07/09 04:17:14;;;;;;;;;;;25.50;36.60;;;;;;1631338;71;1140;-57
2022/07/09 04:19:16;;;;;;;;;;;25.50;36.60;;;;;;1631657;71;1517;-57
2022/07/09 04:21:21;;;;;;;;;;;25.50;36.70;;;;;;1625668;72;886;-58
2022/07/09 04:23:21;;;;;;;;;;;25.50;36.60;;;;;;1618178;71;1758;-58
2022/07/09 04:25:23;;;;;;;;;;;25.50;36.70;;;;;;1628948;71;780;-57
2022/07/09 04:27:25;;;;;;;;;;;25.50;36.70;;;;;;1632766;71;1913;-57
2022/07/09 04:29:27;;;;;;;;;;;25.50;36.70;;;;;;1629639;72;700;-58
2022/07/09 04:31:29;;;;;;;;;;;25.50;36.70;;;;;;1626337;71;817;-57
2022/07/09 04:33:31;;;;;;;;;;;25.50;36.60;;;;;;1631568;71;1616;-58
2022/07/09 04:35:35;;;;;;;;;;;25.50;36.70;;;;;;1628848;71;722;-56
2022/07/09 04:37:36;;;;;;;;;;;25.50;36.70;;;;;;1625891;71;1657;-57
2022/07/09 04:39:39;;;;;;;;;;;25.50;36.80;;;;;;1628383;71;735;-57
2022/07/09 04:41:41;;;;;;;;;;;25.50;36.80;;;;;;1628038;71;785;-58
2022/07/09 04:43:43;;;;;;;;;;;25.50;36.80;;;;;;1630103;71;776;-58
2022/07/09 04:45:45;;;;;;;;;;;25.50;36.80;;;;;;1628476;71;1940;-58
2022/07/09 04:47:46;;;;;;;;;;;25.50;36.70;;;;;;1624185;71;1596;-58
2022/07/09 04:49:48;;;;;;;;;;;25.50;36.80;;;;;;1626482;71;763;-57
2022/07/09 04:51:51;;;;;;;;;;;25.50;36.80;;;;;;1631201;71;763;-57
2022/07/09 04:53:52;;;;;;;;;;;25.50;36.80;;;;;;1630747;71;722;-57
2022/07/09 04:55:54;;;;;;;;;;;25.50;36.80;;;;;;1626864;73;773;-57
2022/07/09 04:57:56;;;;;;;;;;;25.50;36.80;;;;;;1627328;71;1110;-57
2022/07/09 05:00:00;;;;;;;;;;;25.50;36.80;;;;;;1630995;71;747;-58
2022/07/09 05:02:01;;;;;;;;;;;25.50;36.80;;;;;;1622800;71;1765;-58
2022/07/09 05:04:03;;;;;;;;;;;25.50;36.80;;;;;;1630493;73;651;-58
2022/07/09 05:06:05;;;;;;;;;;;25.50;36.80;;;;;;1623629;72;1931;-57
2022/07/09 05:08:07;;;;;;;;;;;25.50;36.80;;;;;;1630945;71;1114;-57
2022/07/09 05:10:09;;;;;;;;;;;25.50;36.80;;;;;;1628888;71;769;-58
2022/07/09 05:12:11;;;;;;;;;;;25.50;36.80;;;;;;1629604;71;755;-57
2022/07/09 05:14:13;;;;;;;;;;;25.50;36.80;;;;;;1630932;71;776;-58
2022/07/09 05:16:15;;;;;;;;;;;25.50;36.90;;;;;;1631823;71;1545;-57
2022/07/09 05:18:17;;;;;;;;;;;25.50;36.90;;;;;;1627591;71;723;-57
2022/07/09 05:20:19;;;;;;;;;;;25.50;36.90;;;;;;1621805;71;637;-57
2022/07/09 05:22:22;;;;;;;;;;;25.50;37.00;;;;;;1626376;71;795;-58
2022/07/09 05:24:24;;;;;;;;;;;25.50;37.10;;;;;;1630215;73;768;-58
2022/07/09 05:26:29;;;;;;;;;;;25.50;37.10;;;;;;1628158;71;1935;-56
2022/07/09 05:28:30;;;;;;;;;;;25.50;37.10;;;;;;1628966;71;1608;-58
2022/07/09 05:30:36;;;;;;;;;;;25.50;37.20;;;;;;1628423;71;1704;-58
2022/07/09 05:32:35;;;;;;;;;;;25.50;37.20;;;;;;1626674;71;1614;-58
2022/07/09 05:34:37;;;;;;;;;;;25.50;37.20;;;;;;1628380;71;695;-57
2022/07/09 05:36:39;;;;;;;;;;;25.50;37.20;;;;;;1617118;71;1178;-57
2022/07/09 05:38:41;;;;;;;;;;;25.50;37.20;;;;;;1630406;71;794;-57
2022/07/09 05:40:43;;;;;;;;;;;25.50;37.20;;;;;;1622321;71;728;-55
2022/07/09 05:42:45;;;;;;;;;;;25.50;37.20;;;;;;1626564;71;1499;-57
2022/07/09 05:44:46;;;;;;;;;;;25.50;37.20;;;;;;1629123;71;709;-57
2022/07/09 05:46:48;;;;;;;;;;;25.50;37.20;;;;;;1627958;73;1949;-56
2022/07/09 05:48:50;;;;;;;;;;;25.50;37.20;;;;;;1632772;71;719;-56
2022/07/09 05:50:52;;;;;;;;;;;25.50;37.30;;;;;;1628520;71;779;-57
2022/07/09 05:52:54;;;;;;;;;;;25.50;37.30;;;;;;1629896;71;741;-56
2022/07/09 05:54:56;;;;;;;;;;;25.50;37.30;;;;;;1632198;71;771;-58
2022/07/09 05:56:58;;;;;;;;;;;25.50;37.30;;;;;;1632662;71;1598;-58
2022/07/09 05:59:00;;;;;;;;;;;25.60;37.30;;;;;;1618316;71;861;-59
2022/07/09 06:01:01;;;;;;;;;;;25.60;37.30;;;;;;1610840;71;801;-58
2022/07/09 06:03:03;;;;;;;;;;;25.60;37.20;;;;;;1610305;73;714;-58
2022/07/09 06:05:05;;;;;;;;;;;25.50;37.20;;;;;;1616345;71;737;-59
2022/07/09 06:07:07;;;;;;;;;;;25.50;37.20;;;;;;1606705;73;1949;-57
2022/07/09 06:09:09;;;;;;;;;;;25.50;37.20;;;;;;1609740;71;663;-55
2022/07/09 06:11:12;;;;;;;;;;;25.50;37.30;;;;;;1617354;71;1507;-58
2022/07/09 06:13:13;;;;;;;;;;;25.40;37.30;;;;;;1615032;71;790;-57
2022/07/09 06:15:15;;;;;;;;;;;25.40;37.30;;;;;;1608064;71;848;-58
2022/07/09 06:17:17;;;;;;;;;;;25.40;37.40;;;;;;1610765;72;1136;-58
2022/07/09 06:19:19;;;;;;;;;;;25.40;37.30;;;;;;1610507;73;805;-58
2022/07/09 06:21:21;;;;;;;;;;;25.40;37.40;;;;;;1612361;71;747;-57
2022/07/09 06:23:23;;;;;;;;;;;25.30;37.30;;;;;;1616236;71;892;-59
2022/07/09 06:25:25;;;;;;;;;;;25.30;37.30;;;;;;1612086;71;1548;-57
2022/07/09 06:27:27;;;;;;;;;;;25.40;37.40;;;;;;1609030;73;1930;-58
2022/07/09 06:29:28;;;;;;;;;;;25.30;37.40;;;;;;1611542;71;733;-58
2022/07/09 06:31:31;;;;;;;;;;;25.30;37.40;;;;;;1611827;71;786;-58
2022/07/09 06:33:32;;;;;;;;;;;25.30;37.40;;;;;;1615667;71;785;-59
2022/07/09 06:35:34;;;;;;;;;;;25.30;37.40;;;;;;1611772;72;713;-58
2022/07/09 06:37:36;;;;;;;;;;;25.30;37.40;;;;;;1609087;71;1171;-58
2022/07/09 06:39:44;;;;;;;;;;;25.30;37.40;;;;;;1609575;71;1576;-58
2022/07/09 06:41:46;;;;;;;;;;;25.20;37.50;;;;;;1618312;71;691;-59
2022/07/09 06:43:48;;;;;;;;;;;25.30;37.40;;;;;;1617805;71;733;-57
2022/07/09 06:45:50;;;;;;;;;;;25.30;37.40;;;;;;1616651;71;663;-59
2022/07/09 06:47:52;;;;;;;;;;;25.30;37.40;;;;;;1609794;73;1944;-59
2022/07/09 06:49:54;;;;;;;;;;;25.30;37.40;;;;;;1609657;71;725;-57
2022/07/09 06:51:56;;;;;;;;;;;25.30;37.30;;;;;;1611786;73;616;-58
2022/07/09 06:53:58;;;;;;;;;;;25.30;37.30;;;;;;1611911;71;1542;-58
2022/07/09 06:56:00;;;;;;;;;;;25.30;37.40;;;;;;1619166;71;790;-59
2022/07/09 07:00:04;;;;;;;;;;;25.30;37.30;;;;;;1571092;70;227569;-68
2022/07/09 07:02:06;;;;;;;;;;;25.30;37.40;;;;;;1569371;74;936;-69
2022/07/09 07:04:08;;;;;;;;;;;25.30;37.40;;;;;;1568093;74;761;-70
2022/07/09 07:06:10;;;;;;;;;;;25.30;37.40;;;;;;1561853;74;749;-65
2022/07/09 07:08:12;;;;;;;;;;;25.30;37.30;;;;;;1569908;74;1960;-68
2022/07/09 07:10:14;;;;;;;;;;;25.30;37.40;;;;;;1565623;74;793;-69
2022/07/09 07:12:16;;;;;;;;;;;25.30;37.40;;;;;;1570169;74;711;-68
2022/07/09 07:14:17;;;;;;;;;;;25.30;37.30;;;;;;1569353;74;764;-67
2022/07/09 07:16:19;;;;;;;;;;;25.30;37.40;;;;;;1573589;74;820;-69
2022/07/09 07:18:21;;;;;;;;;;;25.30;37.30;;;;;;1577360;74;1142;-69
2022/07/09 07:20:24;;;;;;;;;;;25.40;37.40;;;;;;1567152;74;772;-68
2022/07/09 07:22:26;;;;;;;;;;;25.40;37.40;;;;;;1563520;74;1532;-67
2022/07/09 07:24:30;;;;;;;;;;;25.40;37.40;;;;;;1567542;74;672;-68
2022/07/09 07:26:32;;;;;;;;;;;25.50;37.30;;;;;;1574175;74;792;-68
2022/07/09 07:28:34;;;;;;;;;;;25.50;37.30;;;;;;1565370;74;1916;-68
2022/07/09 07:30:36;;;;;;;;;;;25.50;37.20;;;;;;1567298;74;781;-67
2022/07/09 07:32:38;;;;;;;;;;;25.50;37.00;;;;;;1563273;74;773;-67
2022/07/09 07:34:40;;;;;;;;;;;25.50;36.90;;;;;;1564108;74;779;-64
2022/07/09 07:36:42;;;;;;;;;;;25.60;36.70;;;;;;1560558;74;1655;-65
2022/07/09 07:38:47;;;;;;;;;;;25.50;36.50;;;;;;1567185;74;1171;-66
2022/07/09 07:40:49;;;;;;;;;;;25.60;36.30;;;;;;1566911;74;825;-69
2022/07/09 07:42:51;;;;;;;;;;;25.50;36.10;;;;;;1569382;74;719;-66
2022/07/09 07:44:53;;;;;;;;;;;25.50;35.80;;;;;;1567014;74;779;-67
2022/07/09 07:46:55;;;;;;;;;;;25.50;35.70;;;;;;1566553;74;1926;-68
2022/07/09 07:48:57;;;;;;;;;;;25.50;35.70;;;;;;1571317;74;1155;-65
2022/07/09 07:50:58;;;;;;;;;;;25.50;35.70;;;;;;1568455;74;1530;-67
2022/07/09 07:53:00;;;;;;;;;;;25.50;35.50;;;;;;1567287;74;740;-67
2022/07/09 07:55:02;;;;;;;;;;;25.60;35.50;;;;;;1566860;74;829;-69
2022/07/09 07:57:04;;;;;;;;;;;25.50;35.30;;;;;;1569714;74;753;-67
2022/07/09 07:59:06;;;;;;;;;;;25.60;35.20;;;;;;1570106;74;1132;-65
2022/07/09 08:01:08;;;;;;;;;;;25.60;35.10;;;;;;1569287;74;684;-67
2022/07/09 08:03:10;;;;;;;;;;;25.70;35.30;;;;;;1567889;74;799;-68
2022/07/09 08:05:12;;;;;;;;;;;25.70;35.20;;;;;;1559190;74;1760;-67
2022/07/09 08:07:14;;;;;;;;;;;25.70;35.20;;;;;;1562126;74;1897;-68
2022/07/09 08:09:16;;;;;;;;;;;25.70;34.40;;;;;;1566987;74;1136;-67
2022/07/09 08:11:18;;;;;;;;;;;25.70;34.90;;;;;;1567209;74;726;-68
2022/07/09 08:13:20;;;;;;;;;;;25.80;35.00;;;;;;1569739;74;672;-68
2022/07/09 08:15:22;;;;;;;;;;;25.80;35.00;;;;;;1563670;74;783;-68
2022/07/09 08:17:24;;;;;;;;;;;25.70;34.80;;;;;;1568055;74;1566;-69
2022/07/09 08:19:26;;;;;;;;;;;25.70;34.90;;;;;;1567596;74;1122;-66
2022/07/09 08:21:28;;;;;;;;;;;25.90;34.70;;;;;;1566097;74;805;-68
2022/07/09 08:23:30;;;;;;;;;;;25.80;34.20;;;;;;1567343;74;806;-68
2022/07/09 08:25:32;;;;;;;;;;;25.80;34.40;;;;;;1569870;74;801;-68
2022/07/09 08:27:33;;;;;;;;;;;25.80;34.00;;;;;;1567873;74;1940;-68
2022/07/09 08:29:37;;;;;;;;;;;25.90;34.30;;;;;;1562914;74;1102;-68
2022/07/09 08:31:39;;;;;;;;;;;25.80;34.00;;;;;;1565899;74;1581;-67
2022/07/09 08:33:41;;;;;;;;;;;25.80;33.80;;;;;;1565979;74;662;-66
2022/07/09 08:35:42;;;;;;;;;;;25.80;34.00;;;;;;1562006;74;784;-66
2022/07/09 08:37:44;;;;;;;;;;;25.70;33.60;;;;;;1567439;74;726;-68
2022/07/09 08:39:46;;;;;;;;;;;25.70;34.20;;;;;;1564271;74;1118;-68
2022/07/09 08:41:48;;;;;;;;;;;25.70;34.10;;;;;;1567702;74;746;-67
2022/07/09 08:43:55;;;;;;;;;;;25.80;34.30;;;;;;1567175;74;725;-68
2022/07/09 08:45:54;;;;;;;;;;;25.70;33.40;;;;;;1565952;74;1624;-68
2022/07/09 08:47:56;;;;;;;;;;;25.70;33.40;;;;;;1571234;74;1918;-68
2022/07/09 08:49:58;;;;;;;;;;;25.70;33.90;;;;;;1567810;74;1106;-67
2022/07/09 08:52:00;;;;;;;;;;;25.70;34.00;;;;;;1563767;74;738;-68
2022/07/09 08:54:02;;;;;;;;;;;25.70;34.00;;;;;;1582525;74;742;-68
2022/07/09 08:56:04;;;;;;;;;;;25.70;34.00;;;;;;1572433;74;736;-68
2022/07/09 08:58:05;;;;;;;;;;;25.80;33.90;;;;;;1565967;74;1132;-68
2022/07/09 09:00:08;;;;;;;;;;;25.70;33.90;;;;;;1568318;74;1268;-69
2022/07/09 09:02:10;;;;;;;;;;;25.80;33.80;;;;;;1563756;74;819;-69
2022/07/09 09:04:12;;;;;;;;;;;25.80;33.70;;;;;;1566689;74;733;-68
2022/07/09 09:06:14;;;;;;;;;;;25.80;33.70;;;;;;1566010;74;745;-68
2022/07/09 09:08:19;;;;;;;;;;;25.80;33.80;;;;;;1565986;74;1918;-69
2022/07/09 09:10:22;;;;;;;;;;;25.80;33.40;;;;;;1563855;74;799;-68
2022/07/09 09:12:28;;;;;;;;;;;25.80;33.60;;;;;;1568087;74;698;-71
2022/07/09 09:14:29;;;;;;;;;;;25.90;33.70;;;;;;1571681;74;1541;-68
2022/07/09 09:16:31;;;;;;;;;;;25.80;33.60;;;;;;1555573;74;737;-68
2022/07/09 09:18:37;;;;;;;;;;;25.90;33.60;;;;;;1564097;74;1121;-69
2022/07/09 09:20:39;;;;;;;;;;;25.90;33.50;;;;;;1565819;74;768;-68
2022/07/09 09:22:48;;;;;;;;;;;25.90;33.60;;;;;;1516841;76;1019;-68
2022/07/09 09:24:51;;;;;;;;;;;25.90;33.60;;;;;;1564313;74;732;-69
2022/07/09 09:26:54;;;;;;;;;;;26.00;34.20;;;;;;1572471;74;643;-68
2022/07/09 09:28:57;;;;;;;;;;;26.00;33.90;;;;;;1556069;74;1933;-69
2022/07/09 09:30:59;;;;;;;;;;;26.00;33.90;;;;;;1564095;74;812;-69
2022/07/09 09:33:03;;;;;;;;;;;25.90;33.30;;;;;;1561530;74;722;-68
2022/07/09 09:35:05;;;;;;;;;;;25.90;33.20;;;;;;1564024;74;776;-69
2022/07/09 09:37:08;;;;;;;;;;;25.90;33.10;;;;;;1566457;74;768;-68
2022/07/09 09:39:20;;;;;;;;;;;25.90;33.10;;;;;;1568006;74;1161;-69
2022/07/09 09:41:23;;;;;;;;;;;25.90;33.10;;;;;;1555650;74;748;-68
2022/07/09 09:43:24;;;;;;;;;;;25.90;33.00;;;;;;1564378;74;1375;-68
2022/07/09 09:45:26;;;;;;;;;;;25.90;33.10;;;;;;1562967;74;797;-68
2022/07/09 09:47:28;;;;;;;;;;;25.90;33.10;;;;;;1561270;74;1929;-68
2022/07/09 09:49:30;;;;;;;;;;;25.90;32.50;;;;;;1569664;74;1115;-68
2022/07/09 09:51:32;;;;;;;;;;;25.80;33.10;;;;;;1562195;74;703;-68
2022/07/09 09:53:34;;;;;;;;;;;25.80;33.00;;;;;;1564701;74;672;-68
2022/07/09 09:55:36;;;;;;;;;;;25.90;32.90;;;;;;1568902;74;727;-70
2022/07/09 09:57:38;;;;;;;;;;;25.80;32.90;;;;;;1528580;76;1592;-71
2022/07/09 09:59:40;;;;;;;;;;;25.90;32.70;;;;;;1569533;74;1121;-68
2022/07/09 10:01:42;;;;;;;;;;;25.80;32.60;;;;;;1567939;74;798;-67
2022/07/09 10:03:44;;;;;;;;;;;25.80;32.80;;;;;;1566561;74;718;-68
2022/07/09 10:05:47;;;;;;;;;;;25.80;32.70;;;;;;1567766;74;702;-68
2022/07/09 10:07:49;;;;;;;;;;;25.70;32.60;;;;;;1568361;74;1930;-69
2022/07/09 10:09:58;;;;;;;;;;;25.70;32.60;;;;;;1566132;74;1598;-69
2022/07/09 10:12:00;;;;;;;;;;;25.70;32.70;;;;;;1567772;74;839;-68
2022/07/09 10:14:01;;;;;;;;;;;25.60;32.70;;;;;;1569104;74;734;-68
2022/07/09 10:16:03;;;;;;;;;;;25.60;32.50;;;;;;1570110;74;724;-69
2022/07/09 10:18:11;;;;;;;;;;;25.60;32.40;;;;;;1566542;74;1136;-68
2022/07/09 10:20:13;;;;;;;;;;;25.60;32.10;;;;;;1560226;74;964;-68
2022/07/09 10:22:15;;;;;;;;;;;25.60;32.60;;;;;;1568029;74;729;-67
2022/07/09 10:24:18;;;;;;;;;;;25.50;32.50;;;;;;1569096;74;1529;-69
2022/07/09 10:26:20;;;;;;;;;;;25.60;32.70;;;;;;1560684;76;1808;-69
2022/07/09 10:28:24;;;;;;;;;;;25.60;32.60;;;;;;1565046;74;1937;-68
2022/07/09 10:30:33;;;;;;;;;;;25.50;32.60;;;;;;1567736;74;1661;-68
2022/07/09 10:32:40;;;;;;;;;;;25.50;32.60;;;;;;1562446;74;921;-69
2022/07/09 10:34:46;;;;;;;;;;;25.50;32.30;;;;;;1565931;74;1529;-69
2022/07/09 10:36:57;;;;;;;;;;;25.50;32.30;;;;;;1566170;74;1858;-70
2022/07/09 10:38:59;;;;;;;;;;;25.50;32.30;;;;;;1557675;74;1565;-71
2022/07/09 10:41:03;;;;;;;;;;;25.50;32.30;;;;;;1569915;74;740;-69
2022/07/09 10:43:05;;;;;;;;;;;25.50;32.30;;;;;;1558523;74;695;-68
2022/07/09 10:45:17;;;;;;;;;;;25.50;32.40;;;;;;1565922;74;710;-69
2022/07/09 10:47:19;;;;;;;;;;;25.50;32.30;;;;;;1553970;74;721;-69
2022/07/09 10:49:21;;;;;;;;;;;25.50;32.30;;;;;;1563908;74;1930;-70
2022/07/09 10:51:23;;;;;;;;;;;25.50;32.40;;;;;;1563063;74;642;-68
2022/07/09 10:53:26;;;;;;;;;;;25.50;32.40;;;;;;1562381;74;1622;-69
2022/07/09 10:55:28;;;;;;;;;;;25.50;32.10;;;;;;1568461;74;1962;-68
2022/07/09 10:57:30;;;;;;;;;;;25.50;32.30;;;;;;1567930;74;807;-67
2022/07/09 10:59:32;;;;;;;;;;;25.40;32.40;;;;;;1561763;74;1144;-68
2022/07/09 11:01:34;;;;;;;;;;;25.40;32.30;;;;;;1567300;74;793;-64
2022/07/09 11:03:36;;;;;;;;;;;25.50;32.40;;;;;;1566500;74;766;-65
2022/07/09 11:05:45;;;;;;;;;;;25.40;32.60;;;;;;1569914;74;699;-66
2022/07/09 11:08:03;;;;;;;;;;;25.40;32.70;;;;;;1569555;74;1332;-65
2022/07/09 11:10:05;;;;;;;;;;;25.40;32.60;;;;;;1562645;74;754;-67
2022/07/09 11:12:07;;;;;;;;;;;25.50;32.50;;;;;;1566449;74;721;-65
2022/07/09 11:14:10;;;;;;;;;;;25.40;32.60;;;;;;1567844;74;684;-66
2022/07/09 11:16:11;;;;;;;;;;;25.40;32.60;;;;;;1564732;74;732;-67
2022/07/09 11:18:13;;;;;;;;;;;25.40;32.70;;;;;;1568988;74;1134;-66
2022/07/09 11:20:15;;;;;;;;;;;25.40;32.70;;;;;;1567958;74;1598;-67
2022/07/09 11:22:17;;;;;;;;;;;25.40;32.80;;;;;;1567589;74;728;-67
2022/07/09 11:24:21;;;;;;;;;;;25.30;32.80;;;;;;1568826;74;799;-68
2022/07/09 11:26:23;;;;;;;;;;;25.40;32.80;;;;;;1572759;74;711;-69
2022/07/09 11:28:26;;;;;;;;;;;25.30;32.80;;;;;;1572327;74;1945;-64
2022/07/09 11:30:28;;;;;;;;;;;25.40;32.80;;;;;;1568824;74;710;-66
2022/07/09 11:32:30;;;;;;;;;;;25.40;32.90;;;;;;1566259;74;776;-66
2022/07/09 11:34:32;;;;;;;;;;;25.30;33.80;;;;;;1565747;74;1558;-67
2022/07/09 11:36:48;;;;;;;;;;;25.40;33.40;;;;;;1566642;74;621;-67
2022/07/09 11:38:54;;;;;;;;;;;25.50;34.10;;;;;;1554530;74;1116;-66
2022/07/09 11:41:01;;;;;;;;;;;25.40;33.70;;;;;;1564214;74;737;-64
2022/07/09 11:43:05;;;;;;;;;;;25.40;33.90;;;;;;1557324;74;716;-64
2022/07/09 11:45:07;;;;;;;;;;;25.40;33.90;;;;;;1567577;74;1865;-65
2022/07/09 11:47:09;;;;;;;;;;;25.50;33.90;;;;;;1565198;74;771;-66
2022/07/09 11:49:16;;;;;;;;;;;25.40;33.90;;;;;;1554755;74;1952;-63
2022/07/09 11:51:28;;;;;;;;;;;25.40;33.90;;;;;;1549546;74;1021;-62
2022/07/09 11:53:30;;;;;;;;;;;25.10;33.80;;;;;;1503771;76;1131;-63
2022/07/09 11:55:35;;;;;;;;;;;25.50;33.80;;;;;;1566547;74;669;-65
2022/07/09 11:57:36;;;;;;;;;;;25.50;33.70;;;;;;1555343;74;1700;-66
2022/07/09 11:59:38;;;;;;;;;;;25.50;33.60;;;;;;1567174;74;1152;-66
2022/07/09 12:01:40;;;;;;;;;;;25.50;33.60;;;;;;1563548;74;806;-67
2022/07/09 12:03:43;;;;;;;;;;;25.50;33.60;;;;;;1562442;74;1522;-65
2022/07/09 12:05:47;;;;;;;;;;;25.50;34.10;;;;;;1566145;74;2296;-68
2022/07/09 12:07:50;;;;;;;;;;;25.50;33.90;;;;;;1566220;74;1888;-68
2022/07/09 12:10:04;;;;;;;;;;;25.50;33.90;;;;;;1565331;74;1954;-70
2022/07/09 12:12:06;;;;;;;;;;;25.50;33.80;;;;;;1567511;74;775;-67